Time;durP1;ratioP1;P1;durP2;ratioP2;P2;SDS_P1;SDS_P2;PMS_P1;PMS_P2;Temp;Humidity;BMP_temperature;BMP_pressure;BME280_temperature;BME280_humidity;BME280_pressure;Samples;Min_cycle;Max_cycle;Signal;HPM_P1;HPM_P2
2021/03/22 00:01:21;;;;;;;;;;;;;;;1.98;71.17;97410.88;5031228;28;20044;-75
2021/03/22 00:03:46;;;;;;;4.40;2.80;;;;;;;1.95;71.13;97410.56;5032212;28;19913;-76
2021/03/22 00:06:11;;;;;;;;;;;;;;;1.88;71.69;97407.28;5032634;28;20551;-75
2021/03/22 00:08:37;;;;;;;3.90;2.58;;;;;;;1.75;72.10;97403.09;5032007;28;19913;-75
2021/03/22 00:11:02;;;;;;;;;;;;;;;1.72;72.24;97398.22;5033114;28;20471;-75
2021/03/22 00:13:28;;;;;;;6.35;2.78;;;;;;;1.76;72.19;97403.91;5032500;28;19920;-74
2021/03/22 00:15:56;;;;;;;;;;;;;;;1.68;72.33;97407.88;5032686;28;20025;-76
2021/03/22 00:18:25;;;;;;;5.68;3.35;;;;;;;1.59;72.73;97412.06;5032467;28;19905;-77
2021/03/22 00:20:51;;;;;;;5.22;2.90;;;;;;;1.58;72.65;97413.97;5032868;28;20045;-76
2021/03/22 00:23:17;;;;;;;4.75;3.30;;;;;;;1.45;73.00;97394.66;5032209;28;20029;-75
2021/03/22 00:25:43;;;;;;;5.40;3.45;;;;;;;1.35;73.87;97405.28;5033703;28;20383;-75
2021/03/22 00:28:10;;;;;;;5.40;3.55;;;;;;;1.31;74.14;97398.78;5033122;28;20021;-77
2021/03/22 00:30:38;;;;;;;6.20;4.22;;;;;;;1.21;74.80;97401.34;5032732;28;20529;-75
2021/03/22 00:33:05;;;;;;;7.13;4.03;;;;;;;1.16;74.98;97406.69;5031964;28;20036;-76
2021/03/22 00:35:30;;;;;;;6.78;3.38;;;;;;;1.08;75.21;97406.03;5031366;28;20029;-75
2021/03/22 00:37:56;;;;;;;5.55;3.55;;;;;;;1.04;75.44;97383.34;5031075;28;20044;-74
2021/03/22 00:40:26;;;;;;;8.35;4.03;;;;;;;0.99;75.68;97380.63;5031437;28;20025;-75
2021/03/22 00:42:51;;;;;;;7.63;3.78;;;;;;;0.95;75.66;97390.22;5031256;28;20025;-76
2021/03/22 00:45:18;;;;;;;5.82;3.70;;;;;;;0.84;76.04;97410.00;5030593;28;20037;-74
2021/03/22 00:47:43;;;;;;;4.60;3.10;;;;;;;0.88;75.91;97400.34;5037044;28;20033;-77
2021/03/22 00:50:11;;;;;;;6.78;4.03;;;;;;;0.84;76.36;97398.41;5031078;28;20371;-76
2021/03/22 00:52:37;;;;;;;4.38;3.53;;;;;;;0.86;76.11;97398.97;5039778;28;20072;-76
2021/03/22 00:55:03;;;;;;;3.08;2.75;;;;;;;0.81;76.17;97391.66;5031362;28;20379;-76
2021/03/22 00:57:29;;;;;;;3.65;2.95;;;;;;;0.71;76.39;97383.44;5031183;28;20028;-76
2021/03/22 00:59:54;;;;;;;4.53;3.10;;;;;;;0.60;77.02;97384.31;5031272;28;20383;-76
2021/03/22 01:02:20;;;;;;;;;;;;;;;0.57;77.20;97392.88;5031783;28;20116;-76
2021/03/22 01:04:45;;;;;;;7.15;3.40;;;;;;;0.50;77.28;97384.19;5031421;28;19966;-76
2021/03/22 01:07:10;;;;;;;;;;;;;;;0.49;77.38;97386.06;5031824;28;20037;-75
2021/03/22 01:09:36;;;;;;;8.90;3.55;;;;;;;0.45;77.57;97387.59;5031418;28;19928;-76
2021/03/22 01:12:01;;;;;;;4.15;3.25;;;;;;;0.48;77.47;97378.22;5031073;28;20124;-76
2021/03/22 01:14:27;;;;;;;;;;;;;;;0.41;77.74;97382.94;5031456;28;20040;-75
2021/03/22 01:16:53;;;;;;;5.18;2.97;;;;;;;0.53;77.12;97371.03;5032032;28;19916;-74
2021/03/22 01:19:24;;;;;;;9.10;3.25;;;;;;;0.39;77.65;97377.00;5034006;28;20025;-77
2021/03/22 01:21:56;;;;;;;5.93;3.08;;;;;;;0.38;77.57;97368.13;5034417;28;20022;-76
2021/03/22 01:24:23;;;;;;;3.75;2.88;;;;;;;0.34;77.64;97371.56;5031459;28;20036;-76
2021/03/22 01:26:54;;;;;;;6.65;3.65;;;;;;;0.44;77.35;97372.53;5029938;28;20374;-76
2021/03/22 01:29:32;;;;;;;4.72;3.13;;;;;;;0.44;77.11;97374.38;5031113;28;20032;-75
2021/03/22 01:31:59;;;;;;;3.70;2.92;;;;;;;0.52;77.08;97368.63;5031052;28;20029;-75
2021/03/22 01:34:27;;;;;;;5.18;3.25;;;;;;;0.49;77.08;97366.41;5031367;28;20022;-75
2021/03/22 01:36:53;;;;;;;4.43;3.72;;;;;;;0.46;76.83;97356.16;5031080;28;20454;-75
2021/03/22 01:39:22;;;;;;;4.32;3.47;;;;;;;0.51;76.69;97353.53;5030665;28;20061;-76
2021/03/22 01:42:05;;;;;;;5.65;3.30;;;;;;;0.51;76.78;97366.97;5030832;28;20025;-76
2021/03/22 01:44:36;;;;;;;4.80;3.70;;;;;;;0.50;76.97;97359.97;5030939;28;20033;-74
2021/03/22 01:47:08;;;;;;;4.65;3.28;;;;;;;0.48;76.97;97341.38;5030570;28;20029;-75
2021/03/22 01:49:52;;;;;;;10.25;5.82;;;;;;;0.46;76.90;97342.69;5030758;28;20026;-76
2021/03/22 01:52:20;;;;;;;6.40;4.38;;;;;;;0.51;76.95;97340.06;5030563;28;20113;-75
2021/03/22 01:54:45;;;;;;;6.00;4.55;;;;;;;0.39;76.94;97331.28;5029719;28;20360;-74
2021/03/22 01:57:38;;;;;;;4.80;3.70;;;;;;;0.49;76.78;97339.50;5033943;28;20035;-76
2021/03/22 02:00:08;;;;;;;6.22;4.15;;;;;;;0.46;77.01;97334.63;5032772;28;20045;-76
2021/03/22 02:02:35;;;;;;;5.80;4.53;;;;;;;0.37;77.23;97330.72;5035690;28;20467;-76
2021/03/22 02:05:02;;;;;;;6.05;4.10;;;;;;;0.28;77.53;97338.38;5036900;28;20060;-74
2021/03/22 02:07:30;;;;;;;7.20;3.97;;;;;;;0.13;78.08;97330.06;5036768;28;20382;-76
2021/03/22 02:09:56;;;;;;;5.38;4.10;;;;;;;0.02;78.75;97324.78;5036905;28;20057;-75
2021/03/22 02:12:22;;;;;;;7.05;4.88;;;;;;;0.07;78.46;97333.75;5036749;28;20095;-76
2021/03/22 02:14:52;;;;;;;9.45;4.40;;;;;;;-0.01;78.65;97326.09;5036393;28;20064;-76
2021/03/22 02:17:42;;;;;;;6.28;3.83;;;;;;;0.01;78.89;97329.34;5035283;28;20026;-75
2021/03/22 02:20:44;;;;;;;12.55;4.40;;;;;;;0.12;78.59;97330.34;5035859;28;20044;-75
2021/03/22 02:23:37;;;;;;;4.63;2.97;;;;;;;0.18;78.10;97332.84;5034322;28;20134;-75
2021/03/22 02:26:35;;;;;;;6.75;3.47;;;;;;;0.10;78.01;97322.50;5034380;28;20036;-77
2021/03/22 02:29:17;;;;;;;9.55;4.20;;;;;;;0.14;77.98;97320.13;5033340;28;20056;-76
2021/03/22 02:31:55;;;;;;;5.13;4.00;;;;;;;0.21;77.68;97328.88;5033667;28;20056;-75
2021/03/22 02:34:24;;;;;;;5.65;3.25;;;;;;;0.10;77.97;97333.25;5033699;28;20079;-75
2021/03/22 02:37:24;;;;;;;6.63;3.72;;;;;;;0.12;77.73;97335.72;5033637;28;20021;-74
2021/03/22 02:40:00;;;;;;;11.40;3.58;;;;;;;0.08;78.09;97339.94;5033424;28;20387;-75
2021/03/22 02:42:27;;;;;;;4.47;2.75;;;;;;;0.18;77.91;97342.78;5033739;28;20047;-76
2021/03/22 02:44:53;;;;;;;5.38;3.08;;;;;;;0.06;78.20;97342.88;5033411;28;20456;-75
2021/03/22 02:47:23;;;;;;;4.05;3.10;;;;;;;-0.13;78.84;97342.28;5033543;28;20063;-75
2021/03/22 02:49:51;;;;;;;4.57;3.45;;;;;;;-0.01;78.80;97344.91;5033426;28;20482;-75
2021/03/22 02:52:53;;;;;;;5.93;3.70;;;;;;;-0.21;79.37;97334.63;5033423;28;20040;-75
2021/03/22 02:55:39;;;;;;;5.90;3.63;;;;;;;-0.25;79.31;97329.97;5033687;28;20422;-76
2021/03/22 02:58:08;;;;;;;8.10;4.35;;;;;;;-0.28;79.80;97336.63;5033505;28;20063;-75
2021/03/22 03:00:38;;;;;;;7.45;3.80;;;;;;;-0.42;80.18;97329.94;5033389;28;20436;-75
2021/03/22 03:03:09;;;;;;;6.80;4.75;;;;;;;-0.47;80.54;97327.16;5033585;28;20044;-76
2021/03/22 03:05:34;;;;;;;5.50;3.80;;;;;;;-0.44;80.47;97325.88;5031863;28;20651;-76
2021/03/22 03:08:08;;;;;;;6.63;3.88;;;;;;;-0.50;80.74;97324.16;5032838;28;20021;-75
2021/03/22 03:10:39;;;;;;;5.75;3.85;;;;;;;-0.52;80.90;97328.94;5064948;28;20493;-75
2021/03/22 03:13:04;;;;;;;6.22;4.07;;;;;;;-0.51;80.70;97331.38;5033163;28;20544;-75
2021/03/22 03:15:30;;;;;;;8.07;3.60;;;;;;;-0.38;80.24;97336.47;5033118;28;20025;-76
2021/03/22 03:17:56;;;;;;;4.78;3.60;;;;;;;-0.42;80.18;97329.94;5033262;28;20026;-75
2021/03/22 03:20:26;;;;;;;8.27;4.13;;;;;;;-0.47;80.57;97329.84;5032607;28;20036;-76
2021/03/22 03:22:52;;;;;;;7.22;4.10;;;;;;;-0.52;80.58;97318.19;5032965;28;20029;-75
2021/03/22 03:25:18;;;;;;;7.88;3.90;;;;;;;-0.52;80.95;97313.63;5033368;28;20025;-76
2021/03/22 03:27:44;;;;;;;5.47;3.95;;;;;;;-0.51;80.88;97304.53;5033126;28;20053;-76
2021/03/22 03:30:14;;;;;;;4.70;3.22;;;;;;;-0.50;80.75;97316.88;5032693;28;20083;-76
2021/03/22 03:32:39;;;;;;;4.47;2.90;;;;;;;-0.61;81.16;97323.97;5043754;28;20083;-75
2021/03/22 03:35:08;;;;;;;3.75;2.78;;;;;;;-0.61;81.20;97332.00;5033509;28;20022;-76
2021/03/22 03:37:34;;;;;;;5.57;3.38;;;;;;;-0.72;81.31;97311.38;5035277;28;20083;-76
2021/03/22 03:39:59;;;;;;;4.80;3.58;;;;;;;-0.66;81.52;97312.31;5036293;28;20260;-76
2021/03/22 03:42:25;;;;;;;9.18;4.13;;;;;;;-0.57;81.48;97324.28;5032573;28;20463;-75
2021/03/22 03:44:50;;;;;;;4.72;3.05;;;;;;;-0.61;81.32;97331.19;5032215;28;20017;-76
2021/03/22 03:47:15;;;;;;;5.30;3.03;;;;;;;-0.64;80.88;97327.13;5032425;28;20040;-75
2021/03/22 03:49:41;;;;;;;7.40;3.75;;;;;;;-0.70;81.54;97328.09;5044523;28;20116;-76
2021/03/22 03:52:07;;;;;;;6.22;3.75;;;;;;;-0.71;81.71;97318.38;5051761;28;20747;-75
2021/03/22 03:54:33;;;;;;;4.80;3.30;;;;;;;-0.65;81.76;97327.34;5052062;28;20051;-75
2021/03/22 03:56:59;;;;;;;6.32;3.72;;;;;;;-0.61;81.29;97325.81;5052771;28;20048;-75
2021/03/22 03:59:26;;;;;;;5.53;3.83;;;;;;;-0.73;81.71;97330.44;5051913;28;20057;-75
2021/03/22 04:01:52;;;;;;;4.38;2.75;;;;;;;-0.72;81.18;97315.97;5051622;28;20028;-75
2021/03/22 04:04:18;;;;;;;4.35;3.00;;;;;;;-0.78;81.61;97341.03;5050685;28;20062;-75
2021/03/22 04:06:43;;;;;;;10.30;3.70;;;;;;;-0.81;81.79;97333.47;5050251;28;20492;-75
2021/03/22 04:09:11;;;;;;;5.47;3.20;;;;;;;-0.92;82.45;97321.75;5051582;28;20546;-75
2021/03/22 04:11:39;;;;;;;6.40;4.07;;;;;;;-0.89;82.63;97317.75;5051343;28;20013;-75
2021/03/22 04:14:06;;;;;;;10.02;4.57;;;;;;;-0.73;81.79;97317.81;5052068;28;20484;-76
2021/03/22 04:16:34;;;;;;;5.47;3.90;;;;;;;-0.69;81.51;97328.91;5052118;28;20112;-75
2021/03/22 04:19:00;;;;;;;6.57;3.67;;;;;;;-0.86;82.25;97328.00;5051216;28;20021;-75
2021/03/22 04:21:30;;;;;;;9.95;4.90;;;;;;;-0.74;81.91;97320.72;5051857;28;20482;-75
2021/03/22 04:23:57;;;;;;;6.22;3.55;;;;;;;-0.79;82.11;97317.97;5051434;28;20108;-76
2021/03/22 04:26:23;;;;;;;4.65;3.42;;;;;;;-0.81;82.23;97317.38;5037965;28;20021;-75
2021/03/22 04:28:49;;;;;;;7.00;4.38;;;;;;;-0.82;81.92;97319.25;5031160;28;20036;-75
2021/03/22 04:31:17;;;;;;;6.80;4.20;;;;;;;-0.77;82.20;97321.22;5029858;28;20568;-75
2021/03/22 04:33:43;;;;;;;6.38;4.45;;;;;;;-0.82;81.96;97315.75;5031147;28;20030;-75
2021/03/22 04:36:09;;;;;;;7.65;4.07;;;;;;;-0.89;82.09;97315.06;5031154;28;20029;-75
2021/03/22 04:38:35;;;;;;;7.00;4.80;;;;;;;-0.87;82.11;97316.47;5030973;28;20045;-75
2021/03/22 04:41:01;;;;;;;5.97;4.03;;;;;;;-0.83;82.10;97311.44;5029612;28;20454;-76
2021/03/22 04:43:27;;;;;;;7.97;4.13;;;;;;;-0.87;82.37;97316.47;5031348;28;20091;-75
2021/03/22 04:45:53;;;;;;;11.35;4.60;;;;;;;-0.93;82.81;97321.97;5031386;28;20022;-75
2021/03/22 04:48:18;;;;;;;6.53;4.13;;;;;;;-0.81;82.58;97314.69;5041697;28;20048;-75
2021/03/22 04:50:44;;;;;;;6.35;4.38;;;;;;;-0.81;82.15;97325.41;5030980;28;20060;-75
2021/03/22 04:53:10;;;;;;;6.65;4.20;;;;;;;-0.75;82.19;97335.22;5030568;28;20125;-75
2021/03/22 04:55:35;;;;;;;5.57;4.18;;;;;;;-0.82;82.02;97318.44;5031215;28;20045;-76
2021/03/22 04:58:01;;;;;;;11.00;4.55;;;;;;;-0.75;81.68;97322.59;5031007;28;20029;-75
2021/03/22 05:00:37;;;;;;;7.28;4.35;;;;;;;-0.92;82.31;97329.78;5031451;28;20074;-75
2021/03/22 05:03:04;;;;;;;17.67;8.60;;;;;;;-0.99;82.72;97334.47;5040902;28;20433;-75
2021/03/22 05:05:33;;;;;;;22.75;9.45;;;;;;;-0.90;82.49;97343.78;5030720;28;20021;-75
2021/03/22 05:07:58;;;;;;;11.55;6.50;;;;;;;-1.03;82.65;97333.31;5046873;28;20477;-74
2021/03/22 05:10:28;;;;;;;11.40;5.50;;;;;;;-0.91;82.85;97338.66;5033127;28;20078;-76
2021/03/22 05:12:55;;;;;;;7.05;5.25;;;;;;;-0.89;82.77;97334.69;5042260;28;20489;-75
2021/03/22 05:15:22;;;;;;;8.27;4.88;;;;;;;-0.69;82.01;97351.16;5049062;28;20391;-76
2021/03/22 05:17:47;;;;;;;7.60;5.20;;;;;;;-0.58;81.62;97352.19;5047233;28;20025;-75
2021/03/22 05:20:38;;;;;;;8.73;4.35;;;;;;;-0.58;81.70;97344.13;5047888;28;20032;-76
2021/03/22 05:23:07;;;;;;;14.13;5.57;;;;;;;-0.53;81.76;97349.59;5047816;28;20075;-75
2021/03/22 05:25:33;;;;;;;9.30;4.45;;;;;;;-0.35;80.99;97349.41;5048815;28;20396;-76
2021/03/22 05:27:59;;;;;;;13.88;6.70;;;;;;;-0.41;80.75;97357.63;5047582;28;20029;-75
2021/03/22 05:30:25;;;;;;;8.10;5.53;;;;;;;-0.46;81.36;97350.28;5047781;28;20029;-75
2021/03/22 05:32:59;;;;;;;8.10;5.15;;;;;;;-0.31;81.13;97353.22;5045685;28;20034;-75
2021/03/22 05:35:26;;;;;;;10.68;5.95;;;;;;;-0.38;81.33;97354.44;5044077;28;20036;-75
2021/03/22 05:37:52;;;;;;;7.15;4.68;;;;;;;-0.44;81.57;97353.56;5046518;28;20015;-75
2021/03/22 05:40:23;;;;;;;9.32;5.22;;;;;;;-0.24;80.77;97375.41;5049239;28;20028;-75
2021/03/22 05:43:10;;;;;;;10.50;5.28;;;;;;;-0.44;81.58;97366.97;5047335;28;21475;-76
2021/03/22 05:45:44;;;;;;;7.72;5.45;;;;;;;-0.43;81.31;97365.91;5047953;28;20029;-75
2021/03/22 05:48:22;;;;;;;10.02;5.90;;;;;;;-0.24;81.32;97364.66;5048149;28;20029;-75
2021/03/22 05:51:27;;;;;;;6.97;5.43;;;;;;;-0.29;81.20;97387.94;5048464;28;20021;-75
2021/03/22 05:54:14;;;;;;;8.93;4.13;;;;;;;-0.16;81.11;97387.66;5050161;28;20033;-74
2021/03/22 05:56:49;;;;;;;7.97;4.65;;;;;;;-0.08;80.48;97390.75;5048176;28;20096;-76
2021/03/22 05:59:29;;;;;;;9.68;6.28;;;;;;;-0.04;80.39;97385.72;5046935;28;20108;-76
2021/03/22 06:02:04;;;;;;;12.10;5.57;;;;;;;-0.05;80.46;97392.94;5049085;28;20044;-75
2021/03/22 06:04:49;;;;;;;10.38;5.45;;;;;;;-0.05;80.39;97386.75;5051482;28;20032;-76
2021/03/22 06:07:22;;;;;;;8.00;5.07;;;;;;;0.04;80.36;97377.22;5049046;28;20051;-75
2021/03/22 06:10:16;;;;;;;10.55;5.18;;;;;;;-0.03;80.30;97385.44;5045296;28;20031;-76
2021/03/22 06:12:51;;;;;;;9.25;4.32;;;;;;;0.15;79.85;97386.28;5053325;28;20017;-75
2021/03/22 06:15:26;;;;;;;8.18;4.90;;;;;;;0.24;79.56;97387.53;5045210;28;20025;-82
2021/03/22 06:18:09;;;;;;;8.07;4.80;;;;;;;0.45;78.72;97395.69;5040054;28;20028;-77
2021/03/22 06:20:38;;;;;;;11.55;4.72;;;;;;;0.52;78.02;97390.13;5041305;28;20139;-75
2021/03/22 06:23:17;;;;;;;9.55;4.93;;;;;;;0.71;77.25;97394.19;5052479;28;20495;-76
2021/03/22 06:25:42;;;;;;;8.20;4.57;;;;;;;0.73;76.97;97386.69;5044225;28;20104;-76
2021/03/22 06:28:16;;;;;;;14.20;5.75;;;;;;;0.80;77.04;97384.66;5030649;28;20045;-74
2021/03/22 06:30:56;;;;;;;172.02;86.68;;;;;;;1.50;74.99;97392.03;5039727;28;20112;-77
2021/03/22 06:33:41;;;;;;;13.93;9.80;;;;;;;1.60;73.69;97373.25;5050726;28;20037;-77
2021/03/22 06:36:08;;;;;;;14.00;5.43;;;;;;;1.81;73.15;97375.13;5050350;28;20025;-75
2021/03/22 06:38:34;;;;;;;8.65;4.60;;;;;;;2.00;71.96;97370.19;5051462;28;20049;-75
2021/03/22 06:41:28;;;;;;;17.42;9.52;;;;;;;2.39;70.39;97395.09;5050276;28;20033;-77
2021/03/22 06:43:55;;;;;;;9.95;6.15;;;;;;;2.55;70.18;97397.66;5053811;28;20024;-75
2021/03/22 06:46:21;;;;;;;7.70;5.57;;;;;;;2.73;69.32;97401.84;5054911;28;20044;-80
2021/03/22 06:49:19;;;;;;;9.43;6.43;;;;;;;2.88;68.50;97391.13;5053099;28;20043;-76
2021/03/22 06:51:56;;;;;;;8.48;5.85;;;;;;;2.82;67.59;97394.88;5053591;28;20118;-75
2021/03/22 06:54:43;;;;;;;9.95;5.68;;;;;;;3.47;65.99;97391.75;5053968;28;20025;-82
2021/03/22 06:57:21;;;;;;;7.90;5.38;;;;;;;3.62;64.47;97404.50;5054964;28;20025;-81
2021/03/22 07:00:05;;;;;;;5.50;4.18;;;;;;;3.89;63.76;97399.72;5055567;28;20037;-74
2021/03/22 07:02:59;;;;;;;5.35;3.78;;;;;;;3.51;64.22;97405.56;5054510;28;20028;-86
2021/03/22 07:05:24;;;;;;;11.38;3.88;;;;;;;3.43;64.64;97409.56;5054874;28;20033;-87
2021/03/22 07:07:54;;;;;;;8.05;3.97;;;;;;;3.14;66.69;97408.31;5053730;28;20155;-86
2021/03/22 07:10:22;;;;;;;5.85;4.38;;;;;;;3.28;65.89;97414.09;5055326;28;20039;-87
2021/03/22 07:13:04;;;;;;;6.10;4.13;;;;;;;3.37;64.72;97404.41;5056521;28;20028;-78
2021/03/22 07:15:35;;;;;;;9.77;4.45;;;;;;;3.54;64.07;97407.75;5056566;28;20218;-81
2021/03/22 07:18:33;;;;;;;6.25;4.32;;;;;;;3.90;63.43;97425.72;5054120;28;20499;-86
2021/03/22 07:21:10;;;;;;;5.55;3.75;;;;;;;3.93;62.66;97410.84;5044064;28;20032;-88
2021/03/22 07:23:46;;;;;;;6.22;4.45;;;;;;;4.14;62.64;97417.91;5056840;28;20052;-87
2021/03/22 07:26:20;;;;;;;6.50;4.47;;;;;;;4.51;60.81;97426.63;5057245;28;20025;-83
2021/03/22 07:29:23;;;;;;;8.35;4.25;;;;;;;4.70;60.27;97421.50;5052956;28;20021;-86
2021/03/22 07:31:48;;;;;;;7.38;4.78;;;;;;;5.27;59.33;97422.00;5053222;28;20025;-85
2021/03/22 07:34:24;;;;;;;6.07;4.13;;;;;;;5.60;60.64;97389.91;5052710;28;20033;-86
2021/03/22 07:36:56;;;;;;;5.37;3.47;;;;;;;5.84;56.64;97415.31;5052240;28;20086;-89
2021/03/22 07:39:37;;;;;;;5.45;4.03;;;;;;;6.57;54.48;97410.03;5052265;28;20773;-83
2021/03/22 07:42:15;;;;;;;4.75;3.70;;;;;;;6.13;53.82;97421.72;5053764;28;20037;-89
2021/03/22 07:44:46;;;;;;;4.45;3.38;;;;;;;5.81;55.03;97410.44;5054138;28;20037;-88
2021/03/22 07:47:20;;;;;;;5.97;3.40;;;;;;;5.79;56.21;97420.75;5053314;28;20017;-86
2021/03/22 07:50:17;;;;;;;6.68;2.88;;;;;;;6.64;53.17;97432.25;5054755;28;20025;-86
2021/03/22 07:52:49;;;;;;;4.63;3.40;;;;;;;6.38;53.78;97432.44;5053954;28;20079;-89
2021/03/22 07:55:36;;;;;;;5.88;3.90;;;;;;;6.48;54.02;97437.78;5051876;28;20037;-86
2021/03/22 07:58:01;;;;;;;;;;;;;;;6.16;54.29;97442.88;5053927;28;20037;-88
2021/03/22 08:00:50;;;;;;;7.22;2.83;;;;;;;6.84;52.28;97429.38;5053117;28;19913;-88
2021/03/22 08:03:48;;;;;;;7.00;4.45;;;;;;;7.32;51.10;97435.75;5054783;28;20083;-89
2021/03/22 08:06:51;;;;;;;8.73;5.93;;;;;;;6.65;52.93;97436.56;5054431;28;20056;-86
2021/03/22 08:09:38;;;;;;;5.15;3.70;;;;;;;7.11;51.26;97445.97;5053587;28;20040;-88
2021/03/22 08:12:14;;;;;;;6.03;3.85;;;;;;;6.98;51.71;97454.81;5053038;28;20085;-89
2021/03/22 08:14:42;;;;;;;10.90;4.97;;;;;;;6.76;53.00;97444.38;5054778;28;20037;-88
2021/03/22 08:17:31;;;;;;;7.38;4.63;;;;;;;6.43;53.67;97415.28;5055724;28;20098;-87
2021/03/22 08:20:20;;;;;;;10.45;5.97;;;;;;;6.83;54.52;97439.41;5058020;28;20033;-85
2021/03/22 08:22:51;;;;;;;9.05;5.30;;;;;;;7.39;52.74;97442.44;5053867;28;20021;-89
2021/03/22 08:25:28;;;;;;;7.18;4.82;;;;;;;7.94;52.33;97413.00;5051904;28;20039;-89
2021/03/22 08:27:53;;;;;;;;;;;;;;;7.40;55.52;97429.66;5054834;28;20044;-87
2021/03/22 08:30:35;;;;;;;7.43;4.57;;;;;;;8.31;50.67;97410.34;5053014;28;20417;-90
2021/03/22 08:33:19;;;;;;;4.43;3.67;;;;;;;8.55;50.29;97438.31;5052741;28;20043;-88
2021/03/22 08:35:53;;;;;;;8.05;4.63;;;;;;;9.56;46.08;97431.19;5054288;28;20017;-87
2021/03/22 08:38:31;;;;;;;10.77;4.85;;;;;;;9.25;47.03;97446.47;5053291;28;20048;-89
2021/03/22 08:40:58;;;;;;;8.48;3.25;;;;;;;8.50;45.97;97440.31;5056839;28;20025;-92
2021/03/22 08:43:27;;;;;;;3.78;3.38;;;;;;;8.20;47.75;97446.16;5053343;28;20035;-89
2021/03/22 08:46:05;;;;;;;7.82;3.95;;;;;;;8.41;46.62;97428.47;5051461;28;20033;-90
2021/03/22 08:48:31;;;;;;;4.97;3.70;;;;;;;7.79;47.66;97429.50;5051362;28;20116;-90
2021/03/22 08:51:00;;;;;;;7.90;4.13;;;;;;;8.36;46.80;97418.47;5052191;28;20263;-89
2021/03/22 08:53:33;;;;;;;4.97;3.80;;;;;;;8.25;47.18;97432.47;5053038;28;20044;-83
2021/03/22 08:56:03;;;;;;;7.63;4.18;;;;;;;8.42;48.25;97441.81;5053102;28;20155;-86
2021/03/22 08:58:33;;;;;;;4.85;3.17;;;;;;;8.08;47.61;97447.38;5052859;28;20032;-85
2021/03/22 09:01:08;;;;;;;5.82;3.63;;;;;;;7.97;47.91;97458.69;5051541;28;20037;-84
2021/03/22 09:03:37;;;;;;;6.20;3.58;;;;;;;7.72;47.92;97467.16;5051441;28;20020;-87
2021/03/22 09:06:05;;;;;;;5.15;2.67;;;;;;;7.67;48.26;97459.06;5051372;28;20511;-87
2021/03/22 09:08:33;;;;;;;4.55;3.13;;;;;;;7.87;47.70;97458.81;5052723;28;20070;-88
2021/03/22 09:11:27;;;;;;;9.85;2.95;;;;;;;7.95;47.89;97455.47;5052011;28;20017;-90
2021/03/22 09:13:52;;;;;;;4.93;3.30;;;;;;;8.09;49.50;97453.63;5052516;28;20041;-85
2021/03/22 09:16:24;;;;;;;5.50;3.22;;;;;;;8.18;47.94;97462.78;5051024;28;20021;-87
2021/03/22 09:19:10;;;;;;;4.60;2.47;;;;;;;8.89;45.65;97468.09;5053106;28;20021;-87
2021/03/22 09:21:57;;;;;;;6.50;3.65;;;;;;;8.86;46.85;97463.22;5052309;28;20028;-87
2021/03/22 09:24:38;;;;;;;4.55;2.75;;;;;;;8.48;46.33;97454.25;5051905;28;20037;-89
2021/03/22 09:27:16;;;;;;;5.63;2.78;;;;;;;9.79;45.58;97462.16;5053733;28;20025;-89
2021/03/22 09:29:56;;;;;;;6.55;3.17;;;;;;;10.66;41.83;97464.75;5055829;28;20095;-87
2021/03/22 09:32:22;;;;;;;7.25;3.80;;;;;;;10.81;40.68;97466.34;5055487;28;20596;-89
2021/03/22 09:34:47;;;;;;;4.38;3.22;;;;;;;11.27;39.60;97464.94;5053765;28;20060;-88
2021/03/22 09:37:52;;;;;;;2.63;1.58;;;;;;;11.95;38.31;97458.25;5052978;28;20021;-88
2021/03/22 09:40:20;;;;;;;5.60;1.60;;;;;;;11.63;39.18;97467.56;5051616;28;20397;-84
2021/03/22 09:43:10;;;;;;;10.05;1.48;;;;;;;12.32;36.23;97473.38;5052919;28;20920;-86
2021/03/22 09:45:54;;;;;;;2.33;1.90;;;;;;;11.93;38.61;97470.66;5043835;28;20041;-83
2021/03/22 09:48:41;;;;;;;1.35;1.13;;;;;;;11.79;38.22;97482.50;5057823;28;20035;-89
2021/03/22 09:51:06;;;;;;;2.92;1.50;;;;;;;10.71;39.56;97478.31;5052739;28;20099;-87
2021/03/22 09:53:49;;;;;;;2.30;1.00;;;;;;;11.47;40.54;97474.56;5052453;28;20116;-86
2021/03/22 09:56:34;;;;;;;3.60;1.23;;;;;;;11.54;37.99;97485.88;5051871;28;20025;-88
2021/03/22 09:59:30;;;;;;;2.13;0.98;;;;;;;11.04;38.83;97478.91;5053103;28;20027;-86
2021/03/22 10:01:59;;;;;;;2.28;0.98;;;;;;;10.93;38.05;97475.59;5052656;28;20068;-85
2021/03/22 10:04:35;;;;;;;1.73;1.05;;;;;;;10.42;39.03;97464.19;5052266;28;20021;-81
2021/03/22 10:07:03;;;;;;;;;;;;;;;10.51;40.54;97484.22;5052768;28;20029;-85
2021/03/22 10:09:46;;;;;;;2.13;1.27;;;;;;;9.93;40.06;97490.28;5051336;28;19948;-85
2021/03/22 10:12:23;;;;;;;2.38;0.82;;;;;;;10.05;40.12;97490.63;5050104;28;20029;-81
2021/03/22 10:15:13;;;;;;;1.05;0.95;;;;;;;9.02;42.02;97478.22;5051135;28;20087;-78
2021/03/22 10:18:00;;;;;;;2.67;1.30;;;;;;;9.22;41.77;97481.75;5052220;28;20029;-81
2021/03/22 10:20:43;;;;;;;2.28;1.00;;;;;;;9.83;39.41;97481.50;5054663;28;20119;-82
2021/03/22 10:23:26;;;;;;;2.22;1.10;;;;;;;9.79;39.16;97488.66;5053507;28;20362;-84
2021/03/22 10:26:04;;;;;;;1.38;1.10;;;;;;;9.37;40.34;97487.75;5055462;28;20029;-83
2021/03/22 10:28:29;;;;;;;2.53;1.50;;;;;;;8.99;40.01;97461.69;5054835;28;20444;-80
2021/03/22 10:31:10;;;;;;;2.47;1.00;;;;;;;8.78;41.75;97479.44;5055154;28;20047;-80
2021/03/22 10:33:36;;;;;;;1.25;0.93;;;;;;;9.48;40.60;97483.75;5055850;28;20036;-77
2021/03/22 10:36:04;;;;;;;3.83;2.10;;;;;;;10.12;39.15;97484.72;5055170;28;20056;-80
2021/03/22 10:38:32;;;;;;;1.33;0.90;;;;;;;9.84;38.76;97491.28;5054350;28;20041;-77
2021/03/22 10:41:00;;;;;;;1.15;0.93;;;;;;;9.32;39.58;97484.31;5054871;28;20051;-79
2021/03/22 10:43:31;;;;;;;3.42;1.70;;;;;;;8.85;40.26;97475.25;5053069;28;20025;-77
2021/03/22 10:46:12;;;;;;;2.22;1.27;;;;;;;8.78;41.16;97479.44;5055593;28;20524;-79
2021/03/22 10:48:38;;;;;;;4.32;0.82;;;;;;;8.60;41.01;97454.63;5055136;28;20053;-80
2021/03/22 10:51:17;;;;;;;3.88;2.67;;;;;;;9.16;41.23;97491.94;5054544;28;20051;-82
2021/03/22 10:53:59;;;;;;;4.95;3.13;;;;;;;10.16;39.35;97488.50;5055835;28;20029;-89
2021/03/22 10:56:29;;;;;;;0.93;0.80;;;;;;;9.97;38.44;97471.38;5056420;28;20051;-82
2021/03/22 10:58:58;;;;;;;0.80;0.80;;;;;;;9.78;37.97;97485.13;5059890;28;20021;-85
2021/03/22 11:01:31;;;;;;;2.15;1.08;;;;;;;9.83;37.63;97484.22;5061461;28;20033;-79
2021/03/22 11:04:03;;;;;;;3.28;1.20;;;;;;;9.30;38.69;97481.09;5060470;28;20151;-80
2021/03/22 11:06:33;;;;;;;1.13;0.90;;;;;;;9.22;38.65;97473.56;5055585;28;20037;-78
2021/03/22 11:09:02;;;;;;;1.40;0.73;;;;;;;9.20;39.15;97481.25;5054365;28;20040;-78
2021/03/22 11:11:32;;;;;;;1.70;1.15;;;;;;;8.74;40.29;97494.78;5053488;28;20498;-77
2021/03/22 11:14:01;;;;;;;0.75;0.75;;;;;;;8.44;39.21;97496.81;5052465;28;20025;-78
2021/03/22 11:16:30;;;;;;;1.63;0.80;;;;;;;8.27;39.60;97480.09;5053597;28;20092;-79
2021/03/22 11:18:58;;;;;;;0.60;0.60;;;;;;;8.21;39.80;97462.19;5053977;28;20025;-79
2021/03/22 11:21:26;;;;;;;3.47;1.10;;;;;;;8.29;40.22;97480.66;5053968;28;20116;-76
2021/03/22 11:23:55;;;;;;;1.25;0.90;;;;;;;8.17;40.64;97495.78;5054131;28;20031;-75
2021/03/22 11:26:26;;;;;;;1.35;0.88;;;;;;;8.03;40.17;97495.66;5054019;28;20033;-79
2021/03/22 11:29:24;;;;;;;1.02;0.93;;;;;;;8.02;40.92;97496.75;5052914;28;20484;-77
2021/03/22 11:31:57;;;;;;;0.68;0.57;;;;;;;7.97;40.72;97483.22;5052696;28;20041;-79
2021/03/22 11:34:41;;;;;;;0.82;0.70;;;;;;;8.05;40.34;97490.72;5061145;28;20053;-78
2021/03/22 11:37:21;;;;;;;1.20;1.10;;;;;;;8.08;39.38;97492.91;5060760;28;20403;-76
2021/03/22 11:40:03;;;;;;;1.38;0.60;;;;;;;8.09;39.77;97495.31;5058867;28;20037;-75
2021/03/22 11:42:59;;;;;;;1.63;1.10;;;;;;;8.04;39.04;97497.28;5053033;28;20140;-77
2021/03/22 11:45:40;;;;;;;1.55;0.93;;;;;;;8.12;38.25;97493.91;5052627;28;20036;-79
2021/03/22 11:48:26;;;;;;;2.45;1.13;;;;;;;8.52;37.95;97482.53;5052769;28;20515;-78
2021/03/22 11:50:57;;;;;;;1.17;0.70;;;;;;;8.50;37.63;97481.19;5053129;28;20041;-80
2021/03/22 11:53:25;;;;;;;0.60;0.55;;;;;;;8.43;37.38;97487.00;5051612;28;20033;-77
2021/03/22 11:55:53;;;;;;;2.55;1.55;;;;;;;8.45;37.86;97487.53;5053132;28;20021;-76
2021/03/22 11:58:37;;;;;;;1.65;0.80;;;;;;;8.64;37.54;97478.56;5053335;28;20017;-75
2021/03/22 12:01:27;;;;;;;23.88;13.38;;;;;;;8.76;36.70;97468.03;5053072;28;20021;-75
2021/03/22 12:04:13;;;;;;;1.65;1.42;;;;;;;8.66;35.56;97470.88;5051363;28;20052;-77
2021/03/22 12:06:59;;;;;;;1.52;0.70;;;;;;;8.70;36.71;97472.75;5051705;28;20370;-76
2021/03/22 12:09:26;;;;;;;2.60;0.95;;;;;;;8.70;36.95;97461.03;5053311;28;20041;-78